Time;durP1;ratioP1;P1;durP2;ratioP2;P2;SDS_P1;SDS_P2;PMS_P1;PMS_P2;Temp;Humidity;BMP_temperature;BMP_pressure;BME280_temperature;BME280_humidity;BME280_pressure;Samples;Min_cycle;Max_cycle;Signal;HPM_P1;HPM_P2
2022/10/30 00:09:48;;;;;;;8.27;4.72;;;12.00;97.90;;;;;;5063018;28;20232;-88
2022/10/30 00:15:53;;;;;;;10.23;5.20;;;11.90;98.30;;;;;;5057823;28;20200;-87
2022/10/30 00:35:11;;;;;;;13.98;4.97;;;11.70;98.30;;;;;;5064300;28;20168;-88
2022/10/30 00:38:06;;;;;;;14.05;4.88;;;11.80;98.20;;;;;;5066639;28;20218;-87
2022/10/30 00:40:54;;;;;;;19.67;5.07;;;11.80;98.10;;;;;;5058646;28;20206;-88
2022/10/30 00:44:00;;;;;;;12.85;4.82;;;11.70;98.30;;;;;;5044915;28;20203;-87
2022/10/30 00:50:06;;;;;;;11.75;4.30;;;11.60;98.10;;;;;;5053224;28;20533;-88
2022/10/30 00:56:00;;;;;;;11.38;4.45;;;11.70;97.50;;;;;;5063838;28;20244;-88
2022/10/30 01:01:50;;;;;;;11.57;4.35;;;12.00;96.20;;;;;;5061759;28;20172;-88
2022/10/30 01:21:09;;;;;;;13.60;4.07;;;12.00;96.20;;;;;;5078244;28;20180;-87
2022/10/30 01:30:35;;;;;;;8.45;3.92;;;11.80;96.10;;;;;;5059545;28;20232;-89
2022/10/30 01:33:42;;;;;;;15.20;4.13;;;11.70;96.20;;;;;;5050518;28;20671;-88
2022/10/30 01:36:37;;;;;;;9.60;4.40;;;11.60;96.80;;;;;;5060380;28;20265;-88
2022/10/30 01:39:38;;;;;;;8.68;4.22;;;11.60;96.90;;;;;;5049329;28;20240;-87
2022/10/30 01:42:45;;;;;;;10.00;4.10;;;11.60;96.70;;;;;;5045151;28;20262;-88
2022/10/30 01:45:45;;;;;;;10.07;4.25;;;11.60;96.50;;;;;;4976609;28;20348;-88
2022/10/30 01:48:52;;;;;;;8.30;4.20;;;11.50;97.00;;;;;;4971836;28;20295;-88
2022/10/30 01:51:28;;;;;;;12.48;4.47;;;11.50;97.30;;;;;;4919080;29;20255;-88
2022/10/30 01:54:48;;;;;;;10.70;4.70;;;11.40;97.40;;;;;;4923828;29;20317;-88
2022/10/30 02:04:54;;;;;;;7.85;4.35;;;11.40;96.90;;;;;;4905649;29;20643;-88
2022/10/30 02:07:32;;;;;;;13.27;4.82;;;11.40;97.10;;;;;;4914848;29;20249;-88
2022/10/30 02:10:54;;;;;;;15.77;4.82;;;11.40;97.20;;;;;;4928611;29;20240;-88
2022/10/30 02:20:05;;;;;;;15.18;4.63;;;11.20;97.50;;;;;;4936019;28;20197;-88
2022/10/30 02:25:55;;;;;;;8.80;4.40;;;11.10;97.80;;;;;;4990882;28;20553;-88
2022/10/30 02:28:22;;;;;;;14.00;4.75;;;11.10;97.90;;;;;;5041690;28;20202;-88
2022/10/30 02:34:48;;;;;;;13.60;4.20;;;11.10;97.60;;;;;;5057831;28;20308;-88
2022/10/30 02:41:13;;;;;;;14.15;4.82;;;11.10;97.60;;;;;;5061089;28;20375;-88
2022/10/30 02:43:50;;;;;;;9.27;4.18;;;11.10;97.80;;;;;;5061968;28;20233;-88
2022/10/30 02:46:25;;;;;;;10.38;3.97;;;11.10;97.80;;;;;;5057148;28;20284;-89
2022/10/30 02:48:52;;;;;;;10.23;4.20;;;11.00;97.90;;;;;;5061733;28;20192;-88
2022/10/30 02:51:19;;;;;;;14.13;4.25;;;11.00;98.00;;;;;;5062306;28;20228;-88
2022/10/30 02:54:00;;;;;;;10.57;4.22;;;10.90;98.00;;;;;;5057562;28;20281;-88
2022/10/30 02:56:40;;;;;;;15.02;4.72;;;10.90;98.50;;;;;;5062550;28;20292;-88
2022/10/30 03:02:48;;;;;;;11.73;4.30;;;10.90;98.40;;;;;;5064851;28;20188;-89
2022/10/30 03:05:36;;;;;;;10.88;4.32;;;10.90;98.10;;;;;;5056241;28;20259;-89
2022/10/30 03:08:06;;;;;;;10.82;4.32;;;10.80;98.20;;;;;;5061704;28;20277;-89
2022/10/30 03:10:42;;;;;;;11.70;4.30;;;10.80;98.40;;;;;;5059915;28;20229;-89
2022/10/30 03:13:14;;;;;;;15.93;4.43;;;10.80;98.50;;;;;;5056740;28;20245;-89
2022/10/30 03:16:07;;;;;;;11.40;3.97;;;10.70;98.50;;;;;;5076152;28;20200;-88
2022/10/30 03:19:18;;;;;;;14.50;3.97;;;10.70;98.90;;;;;;5062427;28;20656;-88
2022/10/30 03:31:56;;;;;;;7.68;3.70;;;10.70;98.70;;;;;;5050102;28;20181;-89
2022/10/30 03:34:54;;;;;;;10.95;4.18;;;10.80;98.70;;;;;;5063011;28;20213;-88
2022/10/30 03:38:00;;;;;;;10.38;4.10;;;10.80;98.20;;;;;;5064941;28;20206;-88
2022/10/30 03:40:30;;;;;;;15.27;4.68;;;10.80;98.20;;;;;;5067834;28;20297;-88
2022/10/30 03:43:36;;;;;;;11.45;4.20;;;10.60;98.50;;;;;;5065683;28;20241;-89
2022/10/30 03:46:06;;;;;;;11.52;4.22;;;10.50;98.70;;;;;;5065573;28;20221;-88
2022/10/30 03:52:31;;;;;;;14.73;4.43;;;10.40;98.80;;;;;;5072410;28;20181;-88
2022/10/30 03:54:59;;;;;;;10.95;3.97;;;10.30;99.10;;;;;;5088894;28;20220;-88
2022/10/30 03:57:42;;;;;;;12.15;4.05;;;10.30;99.40;;;;;;5061957;28;20261;-88
2022/10/30 04:03:52;;;;;;;14.07;4.40;;;10.20;99.60;;;;;;5067581;28;20165;-88
2022/10/30 04:22:55;;;;;;;11.57;4.10;;;10.40;99.90;;;;;;5051081;26;20226;-89
2022/10/30 04:28:44;;;;;;;14.63;4.32;;;10.60;99.00;;;;;;5065546;28;20256;-89
2022/10/30 04:34:35;;;;;;;10.68;4.13;;;10.60;99.20;;;;;;5065021;28;20181;-88
2022/10/30 04:47:10;;;;;;;13.23;4.05;;;10.30;99.40;;;;;;5066125;28;20189;-88
2022/10/30 04:53:20;;;;;;;12.93;4.18;;;10.20;99.90;;;;;;5064339;28;20215;-88
2022/10/30 04:59:54;;;;;;;8.68;3.97;;;10.20;99.90;;;;;;5064623;28;20225;-88
2022/10/30 06:15:45;;;;;;;7.50;3.08;;;10.00;99.40;;;;;;5043884;28;20161;-88
2022/10/30 06:18:13;;;;;;;14.10;3.83;;;10.10;99.30;;;;;;5042913;28;20238;-87
2022/10/30 06:24:06;;;;;;;10.40;3.78;;;10.20;99.00;;;;;;5043907;28;20212;-88
2022/10/30 06:29:55;;;;;;;9.63;3.60;;;10.30;98.60;;;;;;5044332;28;20170;-89
2022/10/30 06:32:36;;;;;;;8.52;3.50;;;10.30;99.00;;;;;;5043617;28;20225;-87
2022/10/30 06:55:42;;;;;;;12.45;3.70;;;11.00;97.40;;;;;;5007135;28;20250;-89
2022/10/30 06:58:09;;;;;;;10.02;3.70;;;11.20;96.40;;;;;;5039833;28;20285;-89
2022/10/30 07:00:37;;;;;;;12.05;3.88;;;11.10;96.90;;;;;;5040791;28;20631;-89
2022/10/30 07:54:15;;;;;;;11.43;3.90;;;13.80;92.80;;;;;;5057258;28;20211;-90
2022/10/30 08:04:16;;;;;;;10.85;3.53;;;14.40;89.90;;;;;;5059554;28;20220;-91
2022/10/30 08:11:56;;;;;;;15.10;3.80;;;15.00;81.90;;;;;;5145989;22;20232;-90
2022/10/30 08:14:42;;;;;;;7.88;3.33;;;15.10;82.70;;;;;;5078690;28;20292;-91
2022/10/30 08:17:13;;;;;;;6.60;3.35;;;15.20;83.90;;;;;;5077622;28;20284;-91
2022/10/30 08:19:40;;;;;;;10.95;4.53;;;15.40;80.50;;;;;;5089376;28;20756;-92
2022/10/30 08:22:20;;;;;;;12.85;3.53;;;15.60;82.30;;;;;;5083127;28;20206;-91
2022/10/30 08:25:06;;;;;;;11.45;3.58;;;15.90;77.50;;;;;;5080768;28;20222;-93
2022/10/30 08:27:35;;;;;;;13.43;4.22;;;16.20;78.10;;;;;;5073913;28;20205;-92
2022/10/30 08:30:02;;;;;;;7.35;3.40;;;16.50;78.30;;;;;;5067951;28;20741;-92
2022/10/30 08:32:37;;;;;;;12.43;3.22;;;16.80;73.60;;;;;;5069556;28;20287;-92
2022/10/30 08:38:12;;;;;;;9.38;3.60;;;17.90;63.70;;;;;;5081151;28;20197;-92
2022/10/30 08:44:08;;;;;;;10.45;3.90;;;19.20;45.30;;;;;;5057838;28;20188;-92
2022/10/30 08:53:25;;;;;;;8.25;2.90;;;21.20;27.30;;;;;;5075842;28;20255;-92
2022/10/30 08:55:52;;;;;;;9.57;3.13;;;21.90;28.20;;;;;;5064103;28;20215;-88
2022/10/30 09:01:42;;;;;;;9.25;3.25;;;23.40;23.70;;;;;;5066840;28;20789;-88
2022/10/30 09:04:09;;;;;;;12.23;3.35;;;23.90;22.50;;;;;;5070143;28;20254;-88
2022/10/30 09:06:54;;;;;;;10.95;3.42;;;24.60;21.30;;;;;;5049480;28;20304;-88
2022/10/30 09:09:25;;;;;;;10.10;3.40;;;25.40;20.70;;;;;;5047759;28;20277;-91
2022/10/30 09:12:18;;;;;;;11.30;3.83;;;25.90;18.80;;;;;;5056204;28;20236;-91
2022/10/30 09:14:45;;;;;;;11.38;3.80;;;26.70;16.50;;;;;;5034884;28;20285;-91
2022/10/30 09:17:16;;;;;;;11.07;4.63;;;27.00;15.80;;;;;;5033097;28;20294;-90
2022/10/30 09:19:55;;;;;;;11.55;4.65;;;27.20;15.30;;;;;;5035546;28;20229;-90
2022/10/30 09:22:22;;;;;;;12.52;3.83;;;27.60;15.50;;;;;;5029610;28;20300;-86
2022/10/30 09:24:48;;;;;;;10.48;4.30;;;28.00;15.60;;;;;;5032377;28;20206;-91
2022/10/30 09:27:17;;;;;;;8.38;3.63;;;28.20;14.40;;;;;;5029436;28;20265;-89
2022/10/30 09:29:44;;;;;;;13.65;4.50;;;28.70;13.60;;;;;;5027291;28;20214;-88
2022/10/30 09:32:11;;;;;;;9.15;4.28;;;29.40;11.70;;;;;;5028369;28;20214;-88
2022/10/30 09:34:40;;;;;;;14.63;5.97;;;29.70;13.70;;;;;;5029585;28;20301;-88
2022/10/30 09:37:07;;;;;;;13.98;4.75;;;29.30;11.60;;;;;;5032221;28;20582;-88
2022/10/30 09:39:34;;;;;;;16.25;4.55;;;28.60;11.70;;;;;;5039074;28;20253;-88
2022/10/30 09:42:22;;;;;;;16.42;4.50;;;28.80;11.60;;;;;;5032108;28;20288;-88
2022/10/30 09:45:00;;;;;;;13.35;4.65;;;28.70;11.30;;;;;;5028565;28;20558;-88
2022/10/30 09:47:36;;;;;;;14.48;4.97;;;28.90;9.80;;;;;;5028524;28;20303;-89
2022/10/30 09:50:24;;;;;;;14.55;4.40;;;28.20;11.20;;;;;;5025174;28;20259;-89
2022/10/30 09:53:03;;;;;;;10.95;4.30;;;27.70;11.20;;;;;;5027016;28;20218;-88
2022/10/30 09:55:36;;;;;;;10.73;4.60;;;27.60;11.50;;;;;;5028304;28;20209;-88
2022/10/30 09:58:16;;;;;;;11.52;4.70;;;27.00;13.70;;;;;;5024703;28;20202;-88
2022/10/30 10:00:48;;;;;;;10.48;4.32;;;26.80;14.90;;;;;;5025765;28;20599;-88
2022/10/30 10:03:34;;;;;;;9.07;4.20;;;26.40;14.80;;;;;;5029283;28;20293;-89
2022/10/30 10:06:03;;;;;;;12.00;4.40;;;26.40;14.20;;;;;;5021641;28;20736;-88
2022/10/30 10:08:36;;;;;;;12.20;4.60;;;26.90;12.80;;;;;;5029918;28;20661;-89
2022/10/30 10:11:08;;;;;;;14.55;5.07;;;27.20;13.90;;;;;;5024153;28;20206;-89
2022/10/30 10:13:42;;;;;;;13.00;4.65;;;27.10;13.00;;;;;;5034747;28;20209;-89
2022/10/30 10:16:18;;;;;;;16.73;4.97;;;27.00;12.90;;;;;;5052543;28;20264;-89
2022/10/30 10:18:47;;;;;;;14.20;4.75;;;26.90;13.60;;;;;;5054519;28;20719;-88
2022/10/30 10:21:23;;;;;;;14.90;4.55;;;26.40;12.20;;;;;;5057627;28;20211;-90
2022/10/30 10:24:26;;;;;;;16.58;4.43;;;26.20;13.40;;;;;;5063782;28;20225;-91
2022/10/30 10:27:26;;;;;;;10.02;4.45;;;25.90;14.70;;;;;;5052527;28;20208;-90
2022/10/30 10:30:06;;;;;;;15.48;4.55;;;26.00;14.60;;;;;;5050173;28;20219;-89
2022/10/30 10:33:17;;;;;;;17.70;4.25;;;26.00;14.60;;;;;;5046341;28;20573;-88
2022/10/30 10:35:58;;;;;;;11.35;4.65;;;26.50;13.40;;;;;;5042699;28;20213;-87
2022/10/30 10:38:36;;;;;;;13.13;4.60;;;26.50;14.90;;;;;;5052509;28;20675;-87
2022/10/30 10:41:18;;;;;;;13.40;4.40;;;26.40;13.60;;;;;;5052490;28;20704;-88
2022/10/30 10:44:13;;;;;;;11.52;4.45;;;26.40;14.80;;;;;;5054121;28;20231;-89
2022/10/30 10:47:00;;;;;;;8.90;4.35;;;26.70;12.20;;;;;;5056624;28;20274;-89
2022/10/30 10:49:40;;;;;;;12.38;4.70;;;26.40;14.80;;;;;;5061528;28;20284;-90
2022/10/30 10:52:11;;;;;;;11.82;4.57;;;26.80;13.00;;;;;;5057251;28;20300;-89
2022/10/30 10:54:44;;;;;;;12.05;4.65;;;26.40;14.70;;;;;;5051850;28;20237;-90
2022/10/30 10:57:20;;;;;;;12.48;4.10;;;26.00;13.30;;;;;;5055357;28;20772;-89
2022/10/30 10:59:52;;;;;;;8.82;4.53;;;25.70;13.90;;;;;;5055819;28;20316;-89
2022/10/30 11:02:33;;;;;;;17.50;4.45;;;25.30;14.30;;;;;;5057682;28;20296;-89
2022/10/30 11:05:06;;;;;;;12.20;4.88;;;25.10;14.20;;;;;;5061726;28;20252;-86
2022/10/30 11:07:39;;;;;;;13.75;4.30;;;24.80;14.10;;;;;;5062290;28;20304;-87
2022/10/30 11:10:13;;;;;;;12.13;3.78;;;24.70;14.00;;;;;;5066751;28;20277;-88
2022/10/30 11:12:40;;;;;;;12.80;4.32;;;24.60;14.00;;;;;;5063995;28;20215;-86
2022/10/30 11:15:27;;;;;;;12.70;4.00;;;24.40;13.90;;;;;;5033925;28;20277;-86
2022/10/30 11:17:59;;;;;;;13.90;4.35;;;24.10;16.20;;;;;;5058823;28;20266;-85
2022/10/30 11:20:31;;;;;;;14.23;4.25;;;23.80;17.30;;;;;;5070471;28;20229;-89
2022/10/30 11:23:22;;;;;;;14.18;4.35;;;23.70;18.10;;;;;;5058815;28;20229;-88
2022/10/30 11:25:50;;;;;;;11.23;4.15;;;23.70;17.70;;;;;;5051874;28;20293;-89
2022/10/30 11:28:48;;;;;;;11.45;4.03;;;23.70;17.70;;;;;;5058436;28;20206;-87
2022/10/30 11:31:21;;;;;;;14.63;3.83;;;23.90;16.00;;;;;;5057134;28;20195;-87
2022/10/30 11:34:23;;;;;;;11.70;4.47;;;23.90;15.80;;;;;;5056136;28;21437;-89
2022/10/30 11:37:02;;;;;;;9.95;3.55;;;23.80;16.00;;;;;;5058035;28;20232;-88
2022/10/30 11:39:30;;;;;;;12.88;4.80;;;23.60;18.60;;;;;;5061201;28;20543;-89
2022/10/30 11:42:06;;;;;;;9.32;3.80;;;23.40;18.60;;;;;;5060913;28;20293;-88
2022/10/30 11:44:45;;;;;;;17.00;4.55;;;23.10;18.10;;;;;;5054072;28;20204;-90
2022/10/30 11:47:48;;;;;;;10.85;4.20;;;22.90;19.00;;;;;;5052301;28;20241;-90
2022/10/30 11:50:22;;;;;;;18.20;3.85;;;22.90;18.90;;;;;;5060928;28;20239;-85
2022/10/30 11:53:31;;;;;;;13.02;3.88;;;22.90;19.60;;;;;;5063163;28;20237;-85
2022/10/30 11:56:32;;;;;;;11.27;3.90;;;22.90;19.90;;;;;;5052455;28;20622;-84
2022/10/30 12:12:12;;;;;;;12.15;3.65;;;22.80;19.90;;;;;;5038188;28;20198;-88
2022/10/30 12:14:39;;;;;;;9.10;4.20;;;23.20;19.70;;;;;;5055294;28;20206;-88
2022/10/30 12:17:06;;;;;;;15.48;3.78;;;23.30;20.10;;;;;;5055495;28;20228;-90
2022/10/30 12:23:49;;;;;;;11.25;4.00;;;23.20;21.30;;;;;;5056434;28;20185;-92
2022/10/30 12:30:07;;;;;;;17.48;4.30;;;23.30;20.40;;;;;;5058912;28;20189;-89
2022/10/30 12:36:12;;;;;;;14.77;3.67;;;23.30;20.60;;;;;;5067659;28;21254;-88
2022/10/30 12:38:46;;;;;;;11.55;3.88;;;23.20;19.90;;;;;;5053203;28;20204;-90
2022/10/30 12:41:36;;;;;;;13.95;4.13;;;23.00;19.90;;;;;;5055935;28;20291;-88
2022/10/30 12:51:15;;;;;;;12.13;4.25;;;22.90;19.90;;;;;;5057786;28;20193;-88
2022/10/30 12:57:15;;;;;;;11.90;3.83;;;22.70;21.40;;;;;;5060390;28;20267;-92
2022/10/30 12:59:56;;;;;;;13.73;3.75;;;22.60;20.90;;;;;;5052550;28;22109;-91
2022/10/30 13:02:33;;;;;;;9.20;3.40;;;22.60;21.60;;;;;;5050863;28;20233;-89
2022/10/30 13:05:25;;;;;;;17.88;4.28;;;22.70;21.40;;;;;;5058954;28;20260;-89
2022/10/30 13:08:02;;;;;;;12.70;4.15;;;22.80;21.30;;;;;;5077350;28;20209;-90
2022/10/30 13:13:17;;;;;;;10.77;3.83;;;22.80;21.90;;;;;;5084534;28;20312;-89
2022/10/30 13:15:49;;;;;;;10.60;3.75;;;22.80;22.30;;;;;;5078779;28;20220;-89
2022/10/30 13:18:43;;;;;;;8.15;3.88;;;22.80;23.20;;;;;;5061606;28;20216;-90
2022/10/30 13:21:22;;;;;;;14.52;4.38;;;22.70;23.10;;;;;;5076985;28;20293;-89
2022/10/30 13:23:55;;;;;;;10.38;3.42;;;22.70;24.00;;;;;;5078272;28;20205;-89
2022/10/30 13:26:46;;;;;;;11.18;4.20;;;22.60;24.40;;;;;;5080725;28;20233;-93
2022/10/30 13:29:33;;;;;;;9.30;3.65;;;22.60;24.20;;;;;;5073529;28;20292;-91
2022/10/30 13:32:32;;;;;;;15.77;3.70;;;22.60;24.80;;;;;;5075593;28;20233;-93
2022/10/30 13:35:08;;;;;;;14.75;4.28;;;22.50;24.40;;;;;;5050084;28;20213;-92
2022/10/30 13:37:42;;;;;;;14.27;3.90;;;22.50;26.30;;;;;;5077156;28;20524;-89
2022/10/30 13:43:25;;;;;;;9.75;3.83;;;22.40;24.60;;;;;;5065961;28;20205;-91
2022/10/30 13:46:07;;;;;;;10.27;3.67;;;22.50;24.80;;;;;;5064208;28;20223;-92
2022/10/30 13:49:05;;;;;;;10.63;4.40;;;22.40;24.80;;;;;;5028906;28;20218;-93
2022/10/30 13:51:41;;;;;;;13.05;4.18;;;22.40;25.00;;;;;;5026774;28;20292;-91
2022/10/30 13:54:19;;;;;;;10.35;3.92;;;22.50;25.00;;;;;;5028116;28;20205;-93
2022/10/30 13:57:21;;;;;;;16.30;4.47;;;22.40;25.30;;;;;;5013516;28;20207;-93
2022/10/30 14:00:16;;;;;;;12.82;4.10;;;22.30;25.50;;;;;;4978217;28;20253;-93
2022/10/30 14:03:09;;;;;;;13.25;4.13;;;22.40;24.90;;;;;;4985229;28;20284;-91
2022/10/30 14:05:42;;;;;;;10.73;4.05;;;22.30;25.20;;;;;;4930194;29;20230;-90
2022/10/30 14:08:17;;;;;;;10.77;3.75;;;22.30;25.30;;;;;;4944219;28;20214;-88
2022/10/30 14:10:47;;;;;;;10.93;3.90;;;22.20;25.40;;;;;;4939803;28;20222;-91
2022/10/30 14:13:25;;;;;;;13.82;4.55;;;22.20;25.40;;;;;;4945108;28;20209;-90
2022/10/30 14:15:59;;;;;;;11.93;4.00;;;22.10;25.70;;;;;;4951293;28;20220;-92
2022/10/30 14:19:01;;;;;;;12.32;3.60;;;22.10;25.60;;;;;;4985038;28;20614;-93
2022/10/30 14:21:39;;;;;;;16.30;4.32;;;21.90;25.90;;;;;;4966484;28;20220;-90
2022/10/30 14:24:27;;;;;;;12.25;3.75;;;21.90;25.70;;;;;;4988762;28;20199;-92
2022/10/30 14:27:09;;;;;;;10.23;3.53;;;21.80;26.00;;;;;;4973762;28;20212;-86
2022/10/30 14:29:51;;;;;;;11.63;3.90;;;21.70;26.00;;;;;;4967866;28;20216;-86
2022/10/30 14:32:38;;;;;;;12.05;3.90;;;21.60;26.00;;;;;;4964908;28;20209;-88
2022/10/30 14:35:43;;;;;;;11.13;4.18;;;21.60;26.30;;;;;;4977185;28;20216;-87
2022/10/30 14:38:25;;;;;;;10.57;4.10;;;21.40;26.90;;;;;;4968123;28;20275;-87
2022/10/30 14:41:28;;;;;;;15.00;4.05;;;21.30;27.20;;;;;;4968747;28;20240;-88
2022/10/30 14:44:25;;;;;;;11.13;4.22;;;21.20;27.90;;;;;;5023805;28;20316;-87
2022/10/30 14:47:03;;;;;;;11.57;3.85;;;21.10;28.70;;;;;;5020522;28;20207;-87
2022/10/30 14:49:46;;;;;;;13.90;4.00;;;21.00;29.30;;;;;;5031462;28;20800;-87
2022/10/30 14:52:33;;;;;;;17.38;5.43;;;20.80;29.90;;;;;;5030777;28;20216;-87
2022/10/30 14:55:23;;;;;;;14.98;5.53;;;20.80;30.50;;;;;;5035592;28;20763;-87
2022/10/30 14:58:21;;;;;;;13.75;4.68;;;20.60;32.40;;;;;;5046374;28;20209;-87
2022/10/30 15:01:31;;;;;;;13.68;4.80;;;20.50;32.50;;;;;;5078658;28;20316;-87
2022/10/30 15:04:26;;;;;;;16.20;4.85;;;20.30;32.30;;;;;;5067110;28;20218;-87
2022/10/30 15:07:06;;;;;;;14.88;4.90;;;20.20;32.20;;;;;;5070054;28;20209;-86
2022/10/30 15:10:11;;;;;;;14.02;5.60;;;20.10;32.20;;;;;;5078312;28;20201;-86
2022/10/30 15:13:08;;;;;;;11.52;4.85;;;20.00;32.20;;;;;;5053901;28;20220;-86
2022/10/30 15:15:45;;;;;;;14.82;4.32;;;20.00;32.90;;;;;;5068064;28;20215;-88
2022/10/30 15:18:18;;;;;;;15.32;5.47;;;19.80;34.00;;;;;;5075059;28;20236;-87
2022/10/30 15:21:03;;;;;;;18.80;5.45;;;19.80;34.90;;;;;;5080671;28;20282;-86
2022/10/30 15:23:33;;;;;;;19.92;6.63;;;19.70;35.60;;;;;;5074436;28;20288;-87
2022/10/30 15:26:05;;;;;;;20.50;7.03;;;19.60;36.60;;;;;;5076564;28;20239;-86
2022/10/30 15:28:38;;;;;;;13.15;5.57;;;19.60;37.80;;;;;;5068847;28;20219;-88
2022/10/30 15:31:23;;;;;;;14.57;5.40;;;19.60;39.30;;;;;;5080118;28;20511;-90
2022/10/30 15:33:55;;;;;;;20.92;7.05;;;19.50;40.00;;;;;;5066060;28;20665;-90
2022/10/30 15:36:27;;;;;;;13.40;5.95;;;19.40;41.00;;;;;;5070796;28;20296;-90
2022/10/30 15:39:13;;;;;;;13.20;4.95;;;19.30;41.60;;;;;;5063576;28;20266;-89
2022/10/30 15:41:44;;;;;;;11.23;4.18;;;19.30;42.10;;;;;;5068801;28;20232;-89
2022/10/30 15:44:17;;;;;;;9.50;4.20;;;19.20;41.50;;;;;;5063934;28;20193;-89
2022/10/30 15:46:50;;;;;;;13.63;4.25;;;19.10;42.40;;;;;;5069049;28;20743;-89
2022/10/30 15:49:31;;;;;;;12.45;4.68;;;19.00;43.80;;;;;;5070911;28;20224;-90
2022/10/30 15:52:07;;;;;;;10.60;4.30;;;18.90;46.90;;;;;;5060763;28;20295;-90
2022/10/30 15:54:34;;;;;;;19.00;4.88;;;18.70;48.40;;;;;;5064579;28;20648;-89
2022/10/30 15:57:01;;;;;;;12.43;4.57;;;18.60;50.90;;;;;;5068202;28;20263;-90
2022/10/30 15:59:31;;;;;;;14.43;4.05;;;18.40;53.80;;;;;;5070611;28;20242;-89
2022/10/30 16:02:04;;;;;;;11.02;4.70;;;18.20;54.30;;;;;;5062226;28;20236;-90
2022/10/30 16:04:37;;;;;;;15.52;5.28;;;18.10;56.30;;;;;;5063515;28;20204;-89
2022/10/30 16:07:23;;;;;;;13.68;4.60;;;17.90;59.90;;;;;;5065083;28;20240;-90
2022/10/30 16:10:07;;;;;;;11.20;4.43;;;17.80;61.30;;;;;;5068876;28;20227;-90
2022/10/30 16:12:37;;;;;;;11.82;4.60;;;17.70;63.00;;;;;;5062905;28;20684;-89
2022/10/30 16:15:10;;;;;;;11.00;5.13;;;17.60;64.90;;;;;;5070724;28;20201;-89
2022/10/30 16:17:39;;;;;;;13.65;5.25;;;17.50;70.80;;;;;;5069016;28;20212;-90
2022/10/30 16:20:15;;;;;;;12.32;4.80;;;17.40;72.70;;;;;;5069481;28;20220;-89
2022/10/30 16:22:49;;;;;;;13.13;4.60;;;17.30;73.60;;;;;;5068449;28;20221;-90
2022/10/30 16:25:27;;;;;;;14.63;5.13;;;17.20;74.90;;;;;;5070429;28;20713;-90
2022/10/30 16:27:58;;;;;;;10.77;4.82;;;17.10;75.80;;;;;;5069358;28;20641;-89
2022/10/30 16:30:30;;;;;;;15.38;5.35;;;17.00;78.00;;;;;;5071409;28;20212;-90
2022/10/30 16:33:06;;;;;;;17.02;5.20;;;16.90;78.40;;;;;;5069020;28;20252;-90
2022/10/30 16:35:39;;;;;;;9.45;4.80;;;16.90;78.60;;;;;;5069376;28;20205;-90
2022/10/30 16:38:12;;;;;;;15.38;6.28;;;16.80;78.70;;;;;;5060481;28;20303;-89
2022/10/30 16:40:43;;;;;;;16.95;5.57;;;16.80;80.50;;;;;;5064493;28;20283;-89
2022/10/30 16:43:25;;;;;;;11.25;5.20;;;16.80;81.80;;;;;;5070676;28;20880;-89
2022/10/30 16:46:29;;;;;;;13.40;4.70;;;16.70;83.90;;;;;;5066371;28;20239;-90
2022/10/30 16:49:03;;;;;;;13.95;5.68;;;16.60;84.80;;;;;;5053840;28;21001;-90
2022/10/30 16:51:42;;;;;;;21.58;5.60;;;16.50;85.80;;;;;;5070618;28;20201;-90
2022/10/30 16:54:31;;;;;;;13.32;5.53;;;16.50;86.50;;;;;;5066397;28;20284;-90
2022/10/30 16:57:05;;;;;;;12.05;4.88;;;16.40;87.70;;;;;;5060605;28;20304;-90
2022/10/30 16:59:48;;;;;;;13.68;5.95;;;16.30;88.90;;;;;;5065134;28;20572;-90
2022/10/30 17:02:19;;;;;;;17.27;6.10;;;16.20;90.10;;;;;;5070471;28;20729;-90
2022/10/30 17:04:55;;;;;;;21.27;5.57;;;16.10;90.00;;;;;;5063600;28;20224;-89
2022/10/30 17:07:29;;;;;;;16.73;5.65;;;16.10;90.10;;;;;;5068340;28;20204;-89
2022/10/30 17:10:01;;;;;;;16.00;5.90;;;16.00;90.30;;;;;;5069524;28;20212;-89
2022/10/30 17:12:31;;;;;;;18.08;5.88;;;16.10;90.60;;;;;;5066241;28;20362;-90
2022/10/30 17:15:15;;;;;;;14.98;5.60;;;16.10;90.60;;;;;;5063793;28;20206;-89
2022/10/30 17:17:44;;;;;;;11.82;5.13;;;15.90;91.20;;;;;;5062205;28;20221;-89
2022/10/30 17:20:25;;;;;;;11.68;5.38;;;15.80;91.60;;;;;;5061873;28;20209;-89
2022/10/30 17:23:16;;;;;;;15.48;5.40;;;15.70;91.60;;;;;;5063822;28;20525;-89
2022/10/30 17:25:51;;;;;;;16.45;5.68;;;15.70;91.60;;;;;;5069852;28;20209;-89
2022/10/30 17:31:55;;;;;;;14.02;5.72;;;15.60;91.90;;;;;;5030370;28;20214;-92
2022/10/30 17:34:38;;;;;;;14.82;5.43;;;15.60;92.20;;;;;;5025580;28;20225;-90
2022/10/30 17:37:07;;;;;;;13.70;6.03;;;15.50;92.90;;;;;;5022782;28;20285;-89
2022/10/30 17:39:34;;;;;;;16.90;6.20;;;15.40;93.20;;;;;;5022247;28;20260;-89
2022/10/30 17:42:15;;;;;;;14.93;6.35;;;15.40;93.00;;;;;;5020653;28;20336;-89
2022/10/30 17:44:49;;;;;;;15.95;6.35;;;15.40;93.00;;;;;;5023758;28;20539;-90
2022/10/30 17:47:20;;;;;;;17.38;7.30;;;15.40;93.20;;;;;;5024175;28;20288;-90
2022/10/30 17:50:19;;;;;;;19.13;8.05;;;15.30;93.50;;;;;;5023955;28;20734;-91
2022/10/30 17:53:09;;;;;;;16.17;7.70;;;15.20;93.70;;;;;;5025239;28;20678;-90
2022/10/30 17:55:55;;;;;;;15.18;6.43;;;15.20;93.90;;;;;;5023502;28;20221;-91
2022/10/30 17:58:25;;;;;;;14.65;6.20;;;15.10;94.20;;;;;;5019991;28;20289;-90
2022/10/30 18:01:01;;;;;;;16.35;7.03;;;15.00;94.50;;;;;;5020420;28;21404;-90
2022/10/30 18:03:37;;;;;;;19.25;7.78;;;15.00;94.50;;;;;;5067464;28;20699;-90
2022/10/30 18:06:45;;;;;;;19.00;6.60;;;15.00;94.60;;;;;;5069806;28;20312;-90
2022/10/30 18:09:12;;;;;;;15.10;6.90;;;14.90;95.00;;;;;;5065541;28;20937;-90
2022/10/30 18:11:43;;;;;;;14.77;6.20;;;14.80;95.30;;;;;;5064557;28;20289;-90
2022/10/30 18:15:01;;;;;;;19.35;7.00;;;14.90;95.30;;;;;;5068573;28;20752;-90
2022/10/30 18:20:32;;;;;;;15.27;7.40;;;14.80;95.60;;;;;;5066800;28;20233;-90
2022/10/30 18:23:17;;;;;;;19.00;6.90;;;14.80;95.40;;;;;;5070142;28;20295;-92
2022/10/30 18:25:44;;;;;;;16.02;7.50;;;14.70;95.70;;;;;;5064433;28;20631;-92
2022/10/30 18:28:42;;;;;;;17.52;8.07;;;14.70;95.90;;;;;;5070192;28;20228;-92
2022/10/30 18:34:19;;;;;;;16.17;9.88;;;14.50;96.20;;;;;;5029153;28;20250;-92
2022/10/30 18:37:51;;;;;;;19.98;10.27;;;14.50;96.50;;;;;;4965858;28;20207;-93
2022/10/30 18:40:28;;;;;;;23.75;11.38;;;14.40;96.80;;;;;;4974307;28;20300;-91
2022/10/30 18:43:19;;;;;;;26.25;12.50;;;14.40;96.50;;;;;;4965715;28;20716;-92
2022/10/30 18:45:52;;;;;;;23.30;11.73;;;14.30;96.60;;;;;;4990028;28;20200;-90
2022/10/30 18:48:25;;;;;;;30.90;15.10;;;14.20;96.70;;;;;;4987144;28;20732;-90
2022/10/30 18:51:16;;;;;;;34.22;16.15;;;14.20;96.70;;;;;;4988040;28;20208;-91
2022/10/30 18:53:50;;;;;;;27.58;12.45;;;14.10;97.10;;;;;;4984623;28;20201;-90
2022/10/30 18:56:18;;;;;;;28.33;13.20;;;14.10;97.20;;;;;;4986173;28;20216;-90
2022/10/30 18:58:50;;;;;;;23.70;12.48;;;14.00;97.70;;;;;;4987474;28;20208;-91
2022/10/30 19:01:49;;;;;;;25.15;12.48;;;13.90;97.90;;;;;;5004178;28;20207;-91
2022/10/30 19:04:43;;;;;;;31.20;11.95;;;13.90;98.10;;;;;;5034828;28;20305;-90
2022/10/30 19:07:11;;;;;;;27.50;12.43;;;13.80;98.30;;;;;;5067756;28;20256;-91
2022/10/30 19:09:58;;;;;;;28.50;12.15;;;13.80;98.40;;;;;;5072224;28;20238;-90
2022/10/30 19:12:59;;;;;;;24.73;11.48;;;13.70;98.50;;;;;;5049922;28;20205;-91
2022/10/30 19:15:28;;;;;;;22.23;11.02;;;13.60;98.80;;;;;;5068253;28;20272;-91
2022/10/30 19:18:02;;;;;;;23.67;10.23;;;13.60;98.90;;;;;;5072636;28;20212;-92
2022/10/30 19:20:31;;;;;;;21.95;10.57;;;13.70;98.60;;;;;;5078259;28;20232;-89
2022/10/30 19:26:04;;;;;;;20.13;11.00;;;13.80;98.20;;;;;;4991466;28;20211;-91
2022/10/30 19:28:39;;;;;;;21.45;13.25;;;13.80;98.10;;;;;;4991442;28;20200;-90
2022/10/30 19:31:37;;;;;;;19.48;8.55;;;13.70;98.20;;;;;;4992229;28;20210;-91
2022/10/30 19:34:37;;;;;;;19.92;8.70;;;13.70;98.40;;;;;;4985665;28;20290;-91
2022/10/30 19:37:19;;;;;;;26.95;9.23;;;13.60;98.30;;;;;;4994676;28;20215;-90
2022/10/30 19:40:37;;;;;;;14.20;8.60;;;13.60;98.60;;;;;;4997661;28;20204;-90
2022/10/30 19:43:33;;;;;;;18.15;10.45;;;13.40;98.90;;;;;;4998329;28;20219;-91
2022/10/30 19:46:21;;;;;;;15.98;9.85;;;13.40;99.10;;;;;;4988567;28;20308;-92
2022/10/30 19:49:14;;;;;;;16.88;10.38;;;13.30;99.10;;;;;;4997914;28;20218;-89
2022/10/30 19:51:47;;;;;;;25.55;11.55;;;13.30;99.30;;;;;;4993172;28;20236;-91
2022/10/30 19:54:25;;;;;;;26.23;11.73;;;13.30;99.40;;;;;;4990756;28;20295;-91
2022/10/30 19:56:56;;;;;;;17.67;10.80;;;13.30;99.10;;;;;;5029751;28;20288;-91
2022/10/30 19:59:26;;;;;;;23.38;10.48;;;13.40;98.90;;;;;;5077809;28;20269;-91
2022/10/30 20:02:01;;;;;;;25.00;11.82;;;13.30;98.90;;;;;;5080961;28;20739;-90
2022/10/30 20:04:31;;;;;;;17.75;11.15;;;13.10;99.40;;;;;;5078153;28;20596;-90
2022/10/30 20:06:58;;;;;;;20.90;11.20;;;13.00;99.70;;;;;;5077405;28;20237;-90